Terminal Aerodrome Forecast
Issued by NWS Tulsa, OK

Home | Current Version | Previous Version | Text Only | Print | Product List | Glossary On
Versions: 1 2 3 4 5 6 7 8 9 10 11 12 13 14 15 16 17 18 19
000
FTUS44 KTSA 152300
TAFTUL
TAF
KTUL 152320Z 1600/1624 17007KT P6SM BKN250
     FM160300 18009KT P6SM SCT250 WS020/18045KT
     FM161400 19013G22KT P6SM SCT250
     FM161700 19020G30KT P6SM SCT250=

USA.gov is the U.S. government's official web portal to all federal, state and local government web resources and services.